Time;durP1;ratioP1;P1;durP2;ratioP2;P2;SDS_P1;SDS_P2;PMS_P1;PMS_P2;Temp;Humidity;BMP_temperature;BMP_pressure;BME280_temperature;BME280_humidity;BME280_pressure;Samples;Min_cycle;Max_cycle;Signal;HPM_P1;HPM_P2
2023/01/31 00:00:04;;;;;;;27.47;10.37;;;;;;;;;;4302988;28;10022688;-60
2023/01/31 00:02:30;;;;;;;24.92;14.05;;;;;;;;;;4986627;28;20053;-61
2023/01/31 00:04:56;;;;;;;27.52;13.95;;;;;;;;;;4989564;28;20027;-58
2023/01/31 00:07:22;;;;;;;27.30;13.88;;;;;;;;;;4972592;28;20031;-60
2023/01/31 00:09:48;;;;;;;25.80;13.98;;;;;;;;;;4989640;28;20076;-57
2023/01/31 00:12:14;;;;;;;24.15;13.50;;;;;;;;;;4989267;28;20662;-60
2023/01/31 00:14:40;;;;;;;25.92;14.13;;;;;;;;;;4988962;28;20041;-59
2023/01/31 00:17:06;;;;;;;24.60;14.35;;;;;;;;;;4989499;28;20096;-58
2023/01/31 00:19:32;;;;;;;24.58;14.88;;;;;;;;;;4972225;28;20026;-59
2023/01/31 00:21:58;;;;;;;27.70;13.77;;;;;;;;;;4971424;28;20041;-60
2023/01/31 00:24:24;;;;;;;23.10;14.82;;;;;;;;;;4989292;28;20684;-58
2023/01/31 00:26:55;;;;;;;29.08;14.73;;;;;;;;;;4989338;28;20034;-57
2023/01/31 00:29:22;;;;;;;24.27;14.25;;;;;;;;;;4990402;28;20030;-60
2023/01/31 00:31:48;;;;;;;25.73;14.38;;;;;;;;;;4991336;28;20042;-59
2023/01/31 00:34:14;;;;;;;27.83;15.43;;;;;;;;;;4974588;28;20094;-60
2023/01/31 00:36:39;;;;;;;27.25;15.25;;;;;;;;;;4992513;28;20045;-57
2023/01/31 00:39:06;;;;;;;30.55;16.17;;;;;;;;;;4992219;28;20030;-54
2023/01/31 00:41:32;;;;;;;26.25;16.35;;;;;;;;;;4992212;28;20033;-59
2023/01/31 00:43:58;;;;;;;33.70;16.55;;;;;;;;;;4991774;28;20121;-58
2023/01/31 00:46:24;;;;;;;33.42;17.33;;;;;;;;;;4992288;28;20030;-59
2023/01/31 00:48:50;;;;;;;33.63;15.63;;;;;;;;;;4992481;28;20038;-60
2023/01/31 00:51:16;;;;;;;29.27;15.30;;;;;;;;;;4992317;28;20034;-58
2023/01/31 00:53:42;;;;;;;40.63;18.10;;;;;;;;;;4992212;28;20034;-58
2023/01/31 00:56:10;;;;;;;28.98;16.02;;;;;;;;;;4992437;28;20037;-60
2023/01/31 00:58:38;;;;;;;24.27;16.90;;;;;;;;;;4992208;28;20022;-60
2023/01/31 01:01:07;;;;;;;38.83;17.92;;;;;;;;;;4992080;28;20039;-60
2023/01/31 01:03:33;;;;;;;30.83;16.35;;;;;;;;;;4992109;28;20073;-55
2023/01/31 01:05:59;;;;;;;25.33;16.45;;;;;;;;;;4992238;28;20160;-59
2023/01/31 01:08:25;;;;;;;25.77;16.17;;;;;;;;;;4992260;28;20113;-56
2023/01/31 01:10:51;;;;;;;26.27;16.80;;;;;;;;;;4991955;28;20030;-57
2023/01/31 01:13:17;;;;;;;24.70;16.60;;;;;;;;;;4991926;28;20037;-54
2023/01/31 01:15:43;;;;;;;29.08;15.65;;;;;;;;;;4992090;28;20101;-60
2023/01/31 01:18:09;;;;;;;21.38;14.77;;;;;;;;;;4992269;28;20170;-59
2023/01/31 01:20:35;;;;;;;26.42;14.85;;;;;;;;;;4992038;28;20030;-56
2023/01/31 01:23:02;;;;;;;32.38;15.98;;;;;;;;;;4991954;28;20376;-57
2023/01/31 01:25:28;;;;;;;29.02;16.15;;;;;;;;;;4994742;28;20142;-59
2023/01/31 01:27:53;;;;;;;28.77;16.10;;;;;;;;;;4994754;28;20022;-55
2023/01/31 01:30:20;;;;;;;28.70;17.92;;;;;;;;;;4995794;28;20467;-59
2023/01/31 01:32:47;;;;;;;23.42;15.30;;;;;;;;;;4995961;28;20018;-58
2023/01/31 01:35:13;;;;;;;30.17;15.57;;;;;;;;;;4995858;28;20029;-57
2023/01/31 01:37:42;;;;;;;27.20;15.02;;;;;;;;;;4995853;28;20475;-59
2023/01/31 01:40:08;;;;;;;29.88;17.75;;;;;;;;;;4994621;28;20030;-56
2023/01/31 01:42:35;;;;;;;25.13;16.13;;;;;;;;;;4995712;28;20034;-60
2023/01/31 01:45:04;;;;;;;37.53;16.70;;;;;;;;;;4995650;28;20030;-54
2023/01/31 01:47:30;;;;;;;28.80;16.17;;;;;;;;;;4995929;28;20795;-59
2023/01/31 01:50:15;;;;;;;27.67;15.07;;;;;;;;;;4994647;28;20038;-59
2023/01/31 01:52:47;;;;;;;25.15;14.98;;;;;;;;;;4994497;28;20064;-59
2023/01/31 01:55:17;;;;;;;26.67;15.95;;;;;;;;;;4994675;28;20117;-58
2023/01/31 01:57:44;;;;;;;26.65;15.88;;;;;;;;;;4978041;28;20502;-57
2023/01/31 02:00:21;;;;;;;24.40;15.02;;;;;;;;;;4989472;28;20042;-58
2023/01/31 02:02:48;;;;;;;30.75;15.32;;;;;;;;;;4995446;28;20388;-57
2023/01/31 02:05:16;;;;;;;27.05;15.20;;;;;;;;;;4995194;28;20022;-57
2023/01/31 02:07:42;;;;;;;37.78;16.42;;;;;;;;;;4995217;28;20027;-59
2023/01/31 02:10:14;;;;;;;25.20;15.65;;;;;;;;;;4977682;28;20030;-59
2023/01/31 02:12:41;;;;;;;30.05;17.60;;;;;;;;;;4995462;28;20107;-58
2023/01/31 02:15:08;;;;;;;29.58;16.92;;;;;;;;;;4995506;28;20022;-57
2023/01/31 02:17:34;;;;;;;30.58;17.48;;;;;;;;;;4995552;28;20031;-58
2023/01/31 02:20:18;;;;;;;33.60;17.15;;;;;;;;;;4995847;28;20053;-57
2023/01/31 02:23:03;;;;;;;25.60;16.30;;;;;;;;;;4996078;28;20097;-59
2023/01/31 02:26:01;;;;;;;31.17;16.10;;;;;;;;;;4978033;28;20053;-60
2023/01/31 02:28:46;;;;;;;25.13;15.77;;;;;;;;;;4952736;28;20049;-58
2023/01/31 02:31:25;;;;;;;28.10;16.60;;;;;;;;;;4995583;28;20034;-60
2023/01/31 02:33:51;;;;;;;23.02;15.38;;;;;;;;;;4995025;28;20026;-60
2023/01/31 02:36:52;;;;;;;25.13;15.63;;;;;;;;;;4993835;28;20666;-58
2023/01/31 02:39:24;;;;;;;34.20;16.08;;;;;;;;;;4915685;29;20035;-59
2023/01/31 02:42:03;;;;;;;34.53;15.70;;;;;;;;;;4981858;28;20049;-58
2023/01/31 02:44:58;;;;;;;31.95;17.35;;;;;;;;;;4994367;28;20030;-59
2023/01/31 02:47:30;;;;;;;37.83;17.63;;;;;;;;;;4977176;28;20054;-60
2023/01/31 02:49:58;;;;;;;26.67;15.55;;;;;;;;;;4994540;28;20556;-58
2023/01/31 02:52:24;;;;;;;;;;;;;;;;;;4995057;28;20113;-60
2023/01/31 02:57:46;;;;;;;28.67;15.57;;;;;;;;;;4994450;28;20033;-59
2023/01/31 03:00:13;;;;;;;27.77;15.25;;;;;;;;;;4973662;28;20031;-59
2023/01/31 03:02:39;;;;;;;25.83;15.98;;;;;;;;;;4974947;28;20043;-59
2023/01/31 03:05:05;;;;;;;27.38;15.77;;;;;;;;;;4974759;28;20043;-60
2023/01/31 03:07:33;;;;;;;29.27;15.57;;;;;;;;;;4990126;28;20081;-56
2023/01/31 03:10:18;;;;;;;31.75;15.02;;;;;;;;;;4974969;28;20030;-59
2023/01/31 03:12:55;;;;;;;26.60;16.00;;;;;;;;;;4989731;28;20438;-57
2023/01/31 03:18:26;;;;;;;28.50;15.63;;;;;;;;;;4975023;28;20514;-59
2023/01/31 03:20:55;;;;;;;29.30;15.82;;;;;;;;;;4974709;28;20048;-59
2023/01/31 03:23:25;;;;;;;31.83;16.15;;;;;;;;;;4974440;28;20098;-59
2023/01/31 03:25:52;;;;;;;33.63;15.30;;;;;;;;;;4974586;28;20019;-59
2023/01/31 03:28:20;;;;;;;29.30;15.98;;;;;;;;;;4974382;28;20026;-59
2023/01/31 03:31:10;;;;;;;21.63;14.35;;;;;;;;;;4986956;28;20106;-58
2023/01/31 03:33:38;;;;;;;25.83;15.40;;;;;;;;;;4990194;28;20026;-58
2023/01/31 03:36:16;;;;;;;28.60;14.40;;;;;;;;;;4993793;28;20026;-61
2023/01/31 03:38:48;;;;;;;31.23;14.93;;;;;;;;;;4993449;28;20014;-56
2023/01/31 03:41:21;;;;;;;27.33;15.38;;;;;;;;;;4993403;28;20169;-57
2023/01/31 03:43:53;;;;;;;29.38;15.80;;;;;;;;;;4993316;28;20027;-57
2023/01/31 03:46:25;;;;;;;25.83;15.88;;;;;;;;;;4993591;28;20022;-58
2023/01/31 03:48:53;;;;;;;24.67;14.07;;;;;;;;;;4993341;28;20553;-56
2023/01/31 03:51:21;;;;;;;28.77;15.27;;;;;;;;;;4993342;28;20035;-59
2023/01/31 03:53:52;;;;;;;22.75;14.95;;;;;;;;;;4975790;28;20097;-58
2023/01/31 03:56:25;;;;;;;30.23;14.23;;;;;;;;;;4993209;28;20081;-57
2023/01/31 03:58:54;;;;;;;25.52;13.88;;;;;;;;;;4987969;28;20399;-59
2023/01/31 04:01:22;;;;;;;22.88;13.60;;;;;;;;;;4973829;28;20073;-55
2023/01/31 04:03:53;;;;;;;22.35;14.30;;;;;;;;;;4973489;28;20049;-57
2023/01/31 04:06:19;;;;;;;24.20;13.95;;;;;;;;;;4973700;28;20034;-58
2023/01/31 04:08:45;;;;;;;25.40;15.98;;;;;;;;;;4973686;28;20034;-57
2023/01/31 04:11:12;;;;;;;27.13;14.68;;;;;;;;;;4973387;28;20026;-57
2023/01/31 04:13:38;;;;;;;31.30;15.27;;;;;;;;;;4973413;28;20019;-58
2023/01/31 04:16:04;;;;;;;25.75;14.68;;;;;;;;;;4973798;28;20050;-59
2023/01/31 04:18:30;;;;;;;27.67;15.02;;;;;;;;;;4973524;28;20510;-59
2023/01/31 04:20:56;;;;;;;21.42;14.68;;;;;;;;;;4988501;28;20085;-59
2023/01/31 04:23:23;;;;;;;26.80;14.55;;;;;;;;;;4988212;28;20495;-58
2023/01/31 04:25:49;;;;;;;24.65;13.85;;;;;;;;;;4973613;28;20030;-58
2023/01/31 04:28:15;;;;;;;22.27;14.18;;;;;;;;;;4973382;28;20031;-57
2023/01/31 04:30:41;;;;;;;24.92;14.50;;;;;;;;;;4988125;28;20483;-58
2023/01/31 04:33:07;;;;;;;20.40;15.07;;;;;;;;;;4988019;28;20027;-60
2023/01/31 04:35:33;;;;;;;30.88;16.33;;;;;;;;;;4988403;28;20487;-58
2023/01/31 04:37:59;;;;;;;29.70;15.48;;;;;;;;;;4973261;28;20038;-60
2023/01/31 04:40:25;;;;;;;33.95;15.73;;;;;;;;;;4988123;28;20041;-60
2023/01/31 04:42:51;;;;;;;25.15;15.20;;;;;;;;;;4988036;28;20034;-58
2023/01/31 04:45:17;;;;;;;23.40;15.57;;;;;;;;;;4973197;28;20113;-60
2023/01/31 04:47:43;;;;;;;25.02;14.77;;;;;;;;;;4972996;28;20078;-61
2023/01/31 04:50:10;;;;;;;25.55;15.40;;;;;;;;;;4972962;28;20035;-60
2023/01/31 04:52:36;;;;;;;32.00;15.60;;;;;;;;;;4987892;28;20030;-60
2023/01/31 04:55:02;;;;;;;26.00;15.05;;;;;;;;;;4972841;28;20035;-58
2023/01/31 04:57:28;;;;;;;28.25;16.60;;;;;;;;;;4987715;28;20073;-60
2023/01/31 04:59:54;;;;;;;29.70;15.40;;;;;;;;;;4987129;28;20029;-57
2023/01/31 05:02:22;;;;;;;28.83;14.52;;;;;;;;;;4972876;28;20031;-60
2023/01/31 05:04:47;;;;;;;26.10;15.50;;;;;;;;;;4972757;28;20498;-60
2023/01/31 05:07:13;;;;;;;29.40;14.32;;;;;;;;;;4987466;28;20030;-59
2023/01/31 05:09:41;;;;;;;26.27;14.48;;;;;;;;;;4987639;28;20432;-56
2023/01/31 05:12:07;;;;;;;33.63;14.50;;;;;;;;;;4972790;28;20076;-59
2023/01/31 05:14:33;;;;;;;26.00;14.98;;;;;;;;;;4972560;28;20035;-59
2023/01/31 05:16:59;;;;;;;28.52;16.80;;;;;;;;;;4972772;28;20027;-59
2023/01/31 05:19:25;;;;;;;24.58;15.57;;;;;;;;;;4972789;28;20082;-59
2023/01/31 05:21:54;;;;;;;36.25;15.90;;;;;;;;;;4987708;28;20027;-59
2023/01/31 05:24:24;;;;;;;22.95;14.45;;;;;;;;;;4987339;28;20027;-59
2023/01/31 05:26:51;;;;;;;24.95;15.23;;;;;;;;;;4972852;28;20480;-59
2023/01/31 05:29:17;;;;;;;21.95;15.63;;;;;;;;;;4987726;28;20027;-58
2023/01/31 05:31:44;;;;;;;24.92;16.75;;;;;;;;;;4972176;28;20396;-58
2023/01/31 05:34:13;;;;;;;24.10;15.25;;;;;;;;;;4971898;28;20102;-60
2023/01/31 05:36:40;;;;;;;26.00;15.95;;;;;;;;;;4972528;28;20448;-60
2023/01/31 05:39:06;;;;;;;26.15;16.63;;;;;;;;;;4987359;28;20476;-58
2023/01/31 05:41:32;;;;;;;30.23;18.67;;;;;;;;;;4972426;28;20031;-61
2023/01/31 05:43:58;;;;;;;29.60;16.33;;;;;;;;;;4972426;28;20030;-61
2023/01/31 05:46:24;;;;;;;26.67;17.23;;;;;;;;;;4972475;28;20030;-60
2023/01/31 05:48:50;;;;;;;32.42;16.10;;;;;;;;;;4972550;28;20037;-59
2023/01/31 05:51:16;;;;;;;27.98;16.05;;;;;;;;;;4972362;28;20136;-60
2023/01/31 05:53:42;;;;;;;31.75;15.73;;;;;;;;;;4986816;28;20022;-60
2023/01/31 05:56:08;;;;;;;27.73;15.95;;;;;;;;;;4972474;28;20023;-60
2023/01/31 05:58:34;;;;;;;29.92;17.20;;;;;;;;;;4987291;28;20019;-57
2023/01/31 06:01:00;;;;;;;27.40;17.10;;;;;;;;;;4972262;28;20110;-58
2023/01/31 06:03:26;;;;;;;28.10;16.27;;;;;;;;;;4972260;28;20030;-58
2023/01/31 06:05:53;;;;;;;32.50;16.48;;;;;;;;;;4972403;28;20030;-58
2023/01/31 06:08:19;;;;;;;27.58;17.52;;;;;;;;;;4972451;28;20031;-60
2023/01/31 06:10:44;;;;;;;28.00;16.85;;;;;;;;;;4988159;28;20118;-58
2023/01/31 06:13:10;;;;;;;33.40;17.88;;;;;;;;;;4975244;28;20027;-55
2023/01/31 06:15:36;;;;;;;28.33;15.60;;;;;;;;;;4975671;28;20027;-60
2023/01/31 06:18:03;;;;;;;29.20;17.85;;;;;;;;;;4975435;28;20702;-60
2023/01/31 06:20:29;;;;;;;26.83;17.13;;;;;;;;;;4974882;28;20484;-57
2023/01/31 06:22:55;;;;;;;29.35;17.33;;;;;;;;;;4975299;28;20088;-60
2023/01/31 06:25:21;;;;;;;22.00;16.85;;;;;;;;;;4975056;28;20030;-60
2023/01/31 06:27:47;;;;;;;26.73;17.05;;;;;;;;;;4990566;28;20088;-60
2023/01/31 06:30:13;;;;;;;33.38;17.88;;;;;;;;;;4975450;28;20039;-60
2023/01/31 06:32:39;;;;;;;21.77;15.30;;;;;;;;;;4975150;28;20103;-60
2023/01/31 06:35:05;;;;;;;35.35;17.73;;;;;;;;;;4974179;28;20117;-58
2023/01/31 06:37:31;;;;;;;32.55;15.70;;;;;;;;;;4974340;28;20485;-59
2023/01/31 06:39:58;;;;;;;32.55;18.00;;;;;;;;;;4989740;28;20122;-59
2023/01/31 06:42:24;;;;;;;30.70;17.90;;;;;;;;;;4974728;28;20027;-60
2023/01/31 06:44:50;;;;;;;23.85;15.10;;;;;;;;;;4974650;28;20081;-61
2023/01/31 06:47:16;;;;;;;26.27;16.52;;;;;;;;;;4974623;28;20456;-60
2023/01/31 06:49:42;;;;;;;24.83;15.43;;;;;;;;;;4989107;28;20062;-58
2023/01/31 06:52:08;;;;;;;24.25;15.82;;;;;;;;;;4974339;28;20030;-58
2023/01/31 06:54:34;;;;;;;28.40;17.02;;;;;;;;;;4974351;28;20560;-58
2023/01/31 06:56:59;;;;;;;31.63;17.23;;;;;;;;;;4974451;28;20082;-59
2023/01/31 06:59:26;;;;;;;33.05;16.27;;;;;;;;;;4973929;28;20125;-59
2023/01/31 07:01:52;;;;;;;31.60;17.27;;;;;;;;;;4996522;23;20533;-64
2023/01/31 07:04:18;;;;;;;29.77;17.02;;;;;;;;;;4993216;28;20109;-65
2023/01/31 07:06:44;;;;;;;31.52;17.60;;;;;;;;;;4994287;28;20113;-63
2023/01/31 07:09:10;;;;;;;25.80;17.88;;;;;;;;;;4992656;28;20188;-63
2023/01/31 07:11:37;;;;;;;24.95;18.27;;;;;;;;;;4993878;28;20133;-62
2023/01/31 07:14:03;;;;;;;31.95;18.45;;;;;;;;;;4976344;28;20033;-62
2023/01/31 07:16:30;;;;;;;33.63;18.92;;;;;;;;;;4994134;28;20507;-65
2023/01/31 07:18:56;;;;;;;30.58;17.25;;;;;;;;;;4994007;28;20022;-64
2023/01/31 07:21:23;;;;;;;28.90;17.92;;;;;;;;;;4976513;28;20026;-64
2023/01/31 07:23:49;;;;;;;32.88;16.75;;;;;;;;;;4993263;28;20022;-64
2023/01/31 07:26:15;;;;;;;29.33;17.25;;;;;;;;;;4993986;28;20030;-65
2023/01/31 07:28:41;;;;;;;29.10;18.55;;;;;;;;;;4994192;28;20113;-62
2023/01/31 07:31:10;;;;;;;27.95;17.92;;;;;;;;;;4992914;28;20463;-60
2023/01/31 07:33:36;;;;;;;;;;;;;;;;;;4976448;28;20391;-64
2023/01/31 07:36:03;;;;;;;31.23;18.40;;;;;;;;;;4993765;28;20004;-62
2023/01/31 07:38:29;;;;;;;27.88;17.48;;;;;;;;;;4976227;28;20376;-63
2023/01/31 07:40:58;;;;;;;31.15;17.30;;;;;;;;;;4976647;28;20042;-64
2023/01/31 07:43:24;;;;;;;29.88;16.65;;;;;;;;;;4975033;28;20141;-64
2023/01/31 07:45:50;;;;;;;35.50;17.50;;;;;;;;;;4995734;28;20327;-64
2023/01/31 07:48:16;;;;;;;34.25;18.63;;;;;;;;;;4994389;28;20030;-61
2023/01/31 07:50:42;;;;;;;28.80;18.05;;;;;;;;;;4993576;28;20086;-57
2023/01/31 07:53:07;;;;;;;35.67;18.98;;;;;;;;;;4975485;28;20383;-64
2023/01/31 07:55:33;;;;;;;36.90;16.58;;;;;;;;;;4992600;28;20116;-64
2023/01/31 07:57:59;;;;;;;25.85;15.02;;;;;;;;;;4993633;28;20022;-64
2023/01/31 08:03:31;;;;;;;30.75;16.67;;;;;;;;;;4992962;28;20613;-65
2023/01/31 08:05:58;;;;;;;28.58;16.50;;;;;;;;;;4991526;28;20479;-58
2023/01/31 08:08:24;;;;;;;28.63;16.88;;;;;;;;;;4993607;28;20045;-62
2023/01/31 08:10:50;;;;;;;25.95;16.75;;;;;;;;;;4992041;28;20487;-63
2023/01/31 08:13:16;;;;;;;29.75;21.40;;;;;;;;;;4992814;28;20037;-64
2023/01/31 08:15:42;;;;;;;30.85;24.77;;;;;;;;;;4992671;28;20054;-62
2023/01/31 08:18:08;;;;;;;33.22;25.33;;;;;;;;;;4992824;28;20030;-63
2023/01/31 08:20:36;;;;;;;36.10;27.55;;;;;;;;;;4992614;28;20089;-65
2023/01/31 08:23:02;;;;;;;31.75;28.35;;;;;;;;;;4974592;28;20050;-61
2023/01/31 08:25:29;;;;;;;43.53;31.60;;;;;;;;;;4992832;28;20030;-61
2023/01/31 08:27:56;;;;;;;34.67;30.75;;;;;;;;;;4992955;28;20030;-63
2023/01/31 08:30:22;;;;;;;42.95;33.80;;;;;;;;;;4974894;28;20034;-63
2023/01/31 08:32:48;;;;;;;47.42;36.95;;;;;;;;;;4975392;28;20407;-62
2023/01/31 08:35:14;;;;;;;47.35;42.30;;;;;;;;;;4991659;28;20042;-63
2023/01/31 08:37:40;;;;;;;48.13;43.03;;;;;;;;;;4974872;28;20117;-61
2023/01/31 08:40:07;;;;;;;48.15;43.72;;;;;;;;;;4992333;28;20088;-63
2023/01/31 08:42:33;;;;;;;48.65;43.83;;;;;;;;;;4992346;28;20471;-59
2023/01/31 08:44:59;;;;;;;48.22;43.65;;;;;;;;;;4974573;28;20124;-62
2023/01/31 08:47:25;;;;;;;45.03;40.65;;;;;;;;;;4974884;28;20123;-62
2023/01/31 08:49:51;;;;;;;45.28;40.90;;;;;;;;;;4992258;28;20054;-62
2023/01/31 08:52:17;;;;;;;42.65;37.78;;;;;;;;;;4992321;28;20484;-61
2023/01/31 08:54:43;;;;;;;39.45;35.55;;;;;;;;;;4992010;28;20105;-61
2023/01/31 08:57:09;;;;;;;38.22;34.28;;;;;;;;;;4974912;28;20034;-61
2023/01/31 08:59:35;;;;;;;39.97;34.25;;;;;;;;;;4971655;28;20470;-62
2023/01/31 09:02:01;;;;;;;35.92;32.30;;;;;;;;;;4972716;28;20070;-63
2023/01/31 09:04:27;;;;;;;35.70;31.88;;;;;;;;;;4972177;28;20059;-62
2023/01/31 09:06:54;;;;;;;37.70;33.53;;;;;;;;;;4987876;28;20102;-61
2023/01/31 09:09:20;;;;;;;34.92;31.17;;;;;;;;;;4972872;28;20038;-59
2023/01/31 09:11:46;;;;;;;35.42;31.65;;;;;;;;;;4987566;28;20027;-57
2023/01/31 09:14:12;;;;;;;33.00;29.38;;;;;;;;;;4972862;28;20082;-60
2023/01/31 09:16:38;;;;;;;36.70;32.60;;;;;;;;;;4987752;28;20085;-64
2023/01/31 09:19:04;;;;;;;33.92;30.35;;;;;;;;;;4987720;28;20399;-61
2023/01/31 09:21:30;;;;;;;33.30;29.30;;;;;;;;;;4972783;28;20031;-62
2023/01/31 09:23:57;;;;;;;34.40;29.60;;;;;;;;;;4972841;28;20030;-64
2023/01/31 09:26:24;;;;;;;30.45;27.15;;;;;;;;;;4972723;28;20055;-62
2023/01/31 09:28:50;;;;;;;31.98;25.35;;;;;;;;;;4987690;28;20600;-65
2023/01/31 09:31:19;;;;;;;32.42;26.77;;;;;;;;;;4972694;28;20122;-65
2023/01/31 09:33:45;;;;;;;42.80;28.63;;;;;;;;;;4972462;28;20030;-65
2023/01/31 09:36:15;;;;;;;28.77;25.73;;;;;;;;;;4972574;28;20098;-61
2023/01/31 09:38:41;;;;;;;29.63;26.58;;;;;;;;;;4972288;28;20514;-61
2023/01/31 09:41:14;;;;;;;30.85;27.17;;;;;;;;;;4973069;28;20440;-62
2023/01/31 09:43:41;;;;;;;34.33;27.67;;;;;;;;;;4971700;28;20060;-64
2023/01/31 09:46:11;;;;;;;36.40;27.92;;;;;;;;;;4973482;28;20081;-64
2023/01/31 09:48:38;;;;;;;29.05;25.83;;;;;;;;;;4990100;28;20487;-65
2023/01/31 09:51:05;;;;;;;28.90;25.80;;;;;;;;;;4975342;28;20026;-63
2023/01/31 09:53:33;;;;;;;31.92;26.63;;;;;;;;;;4990541;28;20292;-65
2023/01/31 09:55:59;;;;;;;29.30;26.33;;;;;;;;;;4990261;28;20022;-64
2023/01/31 09:58:35;;;;;;;30.20;26.80;;;;;;;;;;4990773;28;20023;-63
2023/01/31 10:01:08;;;;;;;31.63;26.50;;;;;;;;;;4976127;28;20033;-62
2023/01/31 10:04:04;;;;;;;32.45;25.90;;;;;;;;;;4976050;28;20030;-64
2023/01/31 10:06:35;;;;;;;30.95;24.50;;;;;;;;;;4963985;28;20097;-64
2023/01/31 10:09:09;;;;;;;35.15;25.73;;;;;;;;;;4976559;28;20031;-64
2023/01/31 10:11:38;;;;;;;31.35;27.40;;;;;;;;;;4976558;28;20494;-62
2023/01/31 10:14:13;;;;;;;30.65;26.45;;;;;;;;;;4976085;28;20080;-62
2023/01/31 10:16:44;;;;;;;34.63;25.67;;;;;;;;;;4976487;28;20027;-64
2023/01/31 10:19:19;;;;;;;32.67;25.15;;;;;;;;;;4976484;28;20019;-65
2023/01/31 10:21:49;;;;;;;28.20;24.77;;;;;;;;;;4975977;28;20088;-62
2023/01/31 10:24:33;;;;;;;30.92;23.63;;;;;;;;;;4975844;28;20376;-62
2023/01/31 10:27:05;;;;;;;31.05;22.63;;;;;;;;;;4976010;28;20030;-64
2023/01/31 10:29:37;;;;;;;29.58;23.27;;;;;;;;;;4990922;28;20434;-61
2023/01/31 10:32:20;;;;;;;27.20;23.35;;;;;;;;;;4975707;28;20045;-62
2023/01/31 10:35:09;;;;;;;28.70;23.50;;;;;;;;;;4975780;28;20027;-63
2023/01/31 10:38:05;;;;;;;28.65;21.52;;;;;;;;;;4975522;28;20084;-64
2023/01/31 10:40:38;;;;;;;27.27;23.60;;;;;;;;;;4963333;28;20035;-64
2023/01/31 10:43:25;;;;;;;25.00;18.25;;;;;;;;;;4975313;28;20387;-64
2023/01/31 10:45:53;;;;;;;24.05;17.40;;;;;;;;;;4975589;28;20074;-62
2023/01/31 10:48:26;;;;;;;36.97;18.15;;;;;;;;;;4975406;28;20031;-63
2023/01/31 10:50:58;;;;;;;26.80;17.95;;;;;;;;;;4975366;28;20134;-62
2023/01/31 10:53:43;;;;;;;27.80;18.55;;;;;;;;;;4974670;28;20023;-65
2023/01/31 10:56:21;;;;;;;25.83;18.83;;;;;;;;;;4990485;28;20130;-63
2023/01/31 10:58:47;;;;;;;28.30;17.33;;;;;;;;;;4974502;28;20484;-61
2023/01/31 11:01:14;;;;;;;30.10;18.00;;;;;;;;;;4975192;28;20038;-61
2023/01/31 11:03:45;;;;;;;23.60;18.52;;;;;;;;;;4977315;28;20812;-64
2023/01/31 11:06:11;;;;;;;31.02;18.60;;;;;;;;;;4996885;28;20061;-68
2023/01/31 11:08:53;;;;;;;28.85;20.20;;;;;;;;;;4977246;28;20511;-68
2023/01/31 11:11:20;;;;;;;25.30;18.23;;;;;;;;;;5001056;28;20026;-68
2023/01/31 11:14:02;;;;;;;29.30;19.70;;;;;;;;;;4981075;28;20037;-69
2023/01/31 11:16:31;;;;;;;25.50;16.63;;;;;;;;;;5000491;28;20200;-67
2023/01/31 11:18:58;;;;;;;22.98;16.00;;;;;;;;;;5000057;28;20022;-68
2023/01/31 11:21:26;;;;;;;28.55;18.30;;;;;;;;;;4983341;28;20109;-68
2023/01/31 11:23:56;;;;;;;27.63;18.33;;;;;;;;;;5002247;28;20593;-66
2023/01/31 11:26:27;;;;;;;30.45;19.33;;;;;;;;;;4979242;28;20034;-68
2023/01/31 11:28:53;;;;;;;25.10;17.15;;;;;;;;;;4984998;28;20102;-66
2023/01/31 11:31:21;;;;;;;25.67;17.05;;;;;;;;;;5002300;28;20026;-67
2023/01/31 11:34:10;;;;;;;22.88;16.90;;;;;;;;;;4984526;28;20019;-68
2023/01/31 11:36:45;;;;;;;22.35;16.00;;;;;;;;;;4983800;28;20031;-68
2023/01/31 11:39:31;;;;;;;25.40;16.65;;;;;;;;;;5000225;28;20026;-67
2023/01/31 11:41:57;;;;;;;21.92;16.52;;;;;;;;;;4999593;28;20034;-68
2023/01/31 11:44:23;;;;;;;27.05;17.88;;;;;;;;;;4999691;28;20039;-67
2023/01/31 11:46:54;;;;;;;28.58;18.40;;;;;;;;;;5000988;28;20029;-68
2023/01/31 11:49:29;;;;;;;22.42;17.70;;;;;;;;;;4995666;28;20450;-65
2023/01/31 11:51:56;;;;;;;25.45;16.58;;;;;;;;;;4976417;28;20022;-62
2023/01/31 11:54:27;;;;;;;22.75;17.33;;;;;;;;;;4994566;28;20044;-64
2023/01/31 11:56:55;;;;;;;26.15;17.95;;;;;;;;;;4991627;28;20110;-63
2023/01/31 11:59:24;;;;;;;25.23;18.00;;;;;;;;;;4992328;28;20035;-64
2023/01/31 12:01:54;;;;;;;28.63;19.00;;;;;;;;;;4976544;28;20647;-62
2023/01/31 12:04:24;;;;;;;29.65;17.20;;;;;;;;;;4993968;28;20022;-62
2023/01/31 12:07:00;;;;;;;26.48;17.67;;;;;;;;;;4994473;28;20023;-64
2023/01/31 12:09:28;;;;;;;25.23;16.25;;;;;;;;;;4976673;28;20034;-63
2023/01/31 12:11:55;;;;;;;24.50;16.77;;;;;;;;;;4993533;28;20026;-63
2023/01/31 12:14:23;;;;;;;26.25;17.00;;;;;;;;;;4992755;28;20026;-62
2023/01/31 12:16:50;;;;;;;27.15;18.58;;;;;;;;;;4973530;28;20042;-64
2023/01/31 12:19:25;;;;;;;24.63;17.73;;;;;;;;;;4993716;28;20089;-64
2023/01/31 12:21:57;;;;;;;28.42;21.23;;;;;;;;;;4991641;28;20030;-64
2023/01/31 12:24:26;;;;;;;25.08;19.45;;;;;;;;;;4991810;28;20088;-64
2023/01/31 12:26:55;;;;;;;30.20;19.45;;;;;;;;;;4993362;28;20052;-64
2023/01/31 12:29:29;;;;;;;28.00;20.90;;;;;;;;;;4993157;28;20026;-64
2023/01/31 12:32:06;;;;;;;26.38;20.50;;;;;;;;;;4975074;28;20090;-64
2023/01/31 12:34:55;;;;;;;27.40;20.83;;;;;;;;;;4975794;28;20053;-64
2023/01/31 12:37:29;;;;;;;26.00;22.13;;;;;;;;;;4992889;28;20065;-65
2023/01/31 12:39:55;;;;;;;28.20;22.33;;;;;;;;;;4992888;28;20786;-64
2023/01/31 12:42:39;;;;;;;26.67;22.55;;;;;;;;;;4992703;28;20261;-64
2023/01/31 12:45:08;;;;;;;33.72;27.00;;;;;;;;;;4993031;28;20025;-63
2023/01/31 12:47:52;;;;;;;34.63;29.42;;;;;;;;;;4992901;28;20022;-64
2023/01/31 12:50:45;;;;;;;36.33;32.58;;;;;;;;;;4994056;28;20510;-64
2023/01/31 12:53:29;;;;;;;43.75;39.15;;;;;;;;;;4996302;28;20513;-64
2023/01/31 12:56:14;;;;;;;46.92;42.75;;;;;;;;;;4994227;28;20094;-65
2023/01/31 12:58:42;;;;;;;54.70;49.55;;;;;;;;;;4993162;28;20034;-63
2023/01/31 13:03:57;;;;;;;55.15;49.75;;;;;;;;;;5024813;23;20560;-61
2023/01/31 13:06:42;;;;;;;57.05;52.33;;;;;;;;;;5009721;28;20495;-61
2023/01/31 13:09:25;;;;;;;59.90;54.75;;;;;;;;;;5010640;28;20029;-59
2023/01/31 13:12:13;;;;;;;59.80;54.53;;;;;;;;;;5009801;28;20375;-62
2023/01/31 13:14:41;;;;;;;60.63;55.55;;;;;;;;;;5011224;28;20026;-60
2023/01/31 13:17:10;;;;;;;59.65;54.42;;;;;;;;;;5011073;28;20022;-63
2023/01/31 13:19:39;;;;;;;61.65;56.45;;;;;;;;;;5010815;28;20494;-61
2023/01/31 13:22:10;;;;;;;63.47;58.15;;;;;;;;;;5013472;28;20067;-56
2023/01/31 13:24:39;;;;;;;63.05;57.55;;;;;;;;;;5012286;28;20431;-63
2023/01/31 13:27:11;;;;;;;65.60;59.92;;;;;;;;;;5013989;28;20287;-60
2023/01/31 13:29:43;;;;;;;68.28;62.08;;;;;;;;;;5013547;28;20029;-60
2023/01/31 13:32:09;;;;;;;68.10;62.13;;;;;;;;;;5012148;28;20042;-56
2023/01/31 13:34:41;;;;;;;72.35;65.47;;;;;;;;;;5014104;28;20375;-57
2023/01/31 13:37:10;;;;;;;70.93;64.65;;;;;;;;;;5015157;28;20029;-60
2023/01/31 13:39:39;;;;;;;67.28;61.83;;;;;;;;;;5015004;28;20505;-61
2023/01/31 13:42:05;;;;;;;71.03;64.78;;;;;;;;;;5013558;28;20491;-59
2023/01/31 13:44:31;;;;;;;71.80;65.18;;;;;;;;;;5014974;28;20536;-59
2023/01/31 13:47:01;;;;;;;70.18;64.13;;;;;;;;;;5014848;28;20034;-60
2023/01/31 13:49:35;;;;;;;72.68;65.72;;;;;;;;;;5014908;28;20037;-59
2023/01/31 13:52:08;;;;;;;72.85;66.45;;;;;;;;;;5014656;28;20036;-59
2023/01/31 13:54:39;;;;;;;68.15;62.60;;;;;;;;;;5014826;28;20026;-57
2023/01/31 13:57:06;;;;;;;69.40;63.45;;;;;;;;;;5015079;28;20022;-57
2023/01/31 13:59:33;;;;;;;70.45;64.65;;;;;;;;;;5014603;28;20022;-58
2023/01/31 14:02:00;;;;;;;70.47;64.32;;;;;;;;;;5014777;28;20068;-59
2023/01/31 14:04:31;;;;;;;72.35;66.18;;;;;;;;;;5014716;28;20113;-58
2023/01/31 14:07:06;;;;;;;70.95;64.85;;;;;;;;;;5014849;28;20105;-55
2023/01/31 14:09:32;;;;;;;69.80;63.95;;;;;;;;;;5014671;28;20037;-58
2023/01/31 14:11:59;;;;;;;69.80;63.72;;;;;;;;;;5012873;28;20022;-61
2023/01/31 14:14:37;;;;;;;66.47;60.40;;;;;;;;;;5012994;28;20054;-59
2023/01/31 14:17:09;;;;;;;64.35;58.35;;;;;;;;;;5006174;28;20029;-57
2023/01/31 14:19:41;;;;;;;62.90;57.03;;;;;;;;;;5013044;28;20026;-58
2023/01/31 14:22:17;;;;;;;61.03;55.30;;;;;;;;;;5012723;28;20165;-59
2023/01/31 14:24:46;;;;;;;60.63;54.13;;;;;;;;;;5014317;28;20026;-57
2023/01/31 14:27:35;;;;;;;53.30;48.13;;;;;;;;;;5013867;28;20029;-58
2023/01/31 14:30:09;;;;;;;53.30;48.20;;;;;;;;;;4966978;28;20046;-56
2023/01/31 14:32:46;;;;;;;53.05;47.97;;;;;;;;;;4993391;28;20041;-57
2023/01/31 14:35:12;;;;;;;49.95;44.92;;;;;;;;;;4994064;28;20023;-60
2023/01/31 14:37:41;;;;;;;50.92;45.42;;;;;;;;;;4994478;28;20084;-56
2023/01/31 14:40:08;;;;;;;54.63;49.70;;;;;;;;;;5012582;28;20021;-59
2023/01/31 14:42:52;;;;;;;50.42;45.67;;;;;;;;;;5012651;28;20146;-59